createdAt,value
2018-10-06T00:00:18.174Z,10.94
2018-10-06T00:01:18.158Z,10.99
2018-10-06T00:02:18.146Z,10.96
2018-10-06T00:03:18.173Z,10.99
2018-10-06T00:04:18.129Z,10.92
2018-10-06T00:05:18.116Z,10.92
2018-10-06T00:06:18.122Z,10.90
2018-10-06T00:07:18.103Z,10.94
2018-10-06T00:08:18.107Z,10.89
2018-10-06T00:09:18.080Z,10.86
2018-10-06T00:10:18.062Z,10.92
2018-10-06T00:11:18.089Z,10.78
2018-10-06T00:12:18.041Z,10.79
2018-10-06T00:13:18.041Z,10.82
2018-10-06T00:14:18.038Z,10.74
2018-10-06T00:15:18.006Z,10.82
2018-10-06T00:16:18.022Z,10.78
2018-10-06T00:17:17.997Z,10.68
2018-10-06T00:18:17.978Z,10.67
2018-10-06T00:19:17.964Z,10.60
2018-10-06T00:20:17.958Z,10.57
2018-10-06T00:21:17.945Z,10.68
2018-10-06T00:22:17.940Z,10.64
2018-10-06T00:23:17.936Z,10.59
2018-10-06T00:24:17.911Z,10.53
2018-10-06T00:25:17.901Z,10.51
2018-10-06T00:26:17.893Z,10.49
2018-10-06T00:27:17.903Z,10.44
2018-10-06T00:28:17.874Z,10.44
2018-10-06T00:29:17.870Z,10.49
2018-10-06T00:30:17.852Z,10.53
2018-10-06T00:31:17.842Z,10.46
2018-10-06T00:32:17.861Z,10.57
2018-10-06T00:33:17.822Z,10.51
2018-10-06T00:34:17.810Z,10.60
2018-10-06T00:35:17.816Z,10.49
2018-10-06T00:36:17.782Z,10.60
2018-10-06T00:37:17.786Z,10.56
2018-10-06T00:38:17.765Z,10.64
2018-10-06T00:39:17.756Z,10.60
2018-10-06T00:40:17.749Z,10.76
2018-10-06T00:41:17.732Z,10.82
2018-10-06T00:42:17.724Z,10.72
2018-10-06T00:43:17.716Z,10.87
2018-10-06T00:44:17.699Z,10.76
2018-10-06T00:45:17.689Z,10.71
2018-10-06T00:46:17.680Z,10.75
2018-10-06T00:47:17.730Z,10.69
2018-10-06T00:48:17.676Z,10.64
2018-10-06T00:49:17.647Z,10.51
2018-10-06T00:50:17.642Z,10.49
2018-10-06T00:51:17.643Z,10.51
2018-10-06T00:52:17.614Z,10.41
2018-10-06T00:53:17.631Z,10.54
2018-10-06T00:54:17.593Z,10.49
2018-10-06T00:55:17.580Z,10.48
2018-10-06T00:56:17.573Z,10.54
2018-10-06T00:57:17.564Z,10.51
2018-10-06T00:58:17.577Z,10.53
2018-10-06T00:59:17.545Z,10.49
2018-10-06T01:00:17.527Z,10.48
2018-10-06T01:01:17.521Z,10.61
2018-10-06T01:02:17.510Z,10.57
2018-10-06T01:03:17.499Z,10.49
2018-10-06T01:04:17.492Z,10.46
2018-10-06T01:05:17.486Z,10.46
2018-10-06T01:06:17.462Z,10.33
2018-10-06T01:07:17.455Z,10.40
2018-10-06T01:08:17.465Z,10.40
2018-10-06T01:09:17.453Z,10.26
2018-10-06T01:10:17.424Z,10.22
2018-10-06T01:11:17.415Z,10.15
2018-10-06T01:12:17.398Z,10.17
2018-10-06T01:13:17.390Z,10.09
2018-10-06T01:14:17.399Z,10.09
2018-10-06T01:15:17.391Z,10.15
2018-10-06T01:16:17.355Z,10.13
2018-10-06T01:17:17.357Z,10.13
2018-10-06T01:18:17.336Z,10.20
2018-10-06T01:19:17.335Z,10.28
2018-10-06T01:20:17.330Z,10.17
2018-10-06T01:21:17.306Z,10.17
2018-10-06T01:22:17.294Z,10.23
2018-10-06T01:23:17.284Z,10.28
2018-10-06T01:24:17.283Z,10.25
2018-10-06T01:25:17.286Z,10.23
2018-10-06T01:26:17.261Z,10.23
2018-10-06T01:27:17.277Z,10.33
2018-10-06T01:28:17.241Z,10.30
2018-10-06T01:29:17.242Z,10.25
2018-10-06T01:30:17.207Z,10.23
2018-10-06T01:31:17.205Z,10.26
2018-10-06T01:32:17.201Z,10.25
2018-10-06T01:33:17.175Z,10.34
2018-10-06T01:34:17.167Z,10.26
2018-10-06T01:35:17.164Z,10.25
2018-10-06T01:36:17.144Z,10.25
2018-10-06T01:37:17.143Z,10.23
2018-10-06T01:38:17.126Z,10.05
2018-10-06T01:39:17.109Z,10.05
2018-10-06T01:40:17.115Z,10.12
2018-10-06T01:41:17.090Z,10.04
2018-10-06T01:42:17.088Z,9.94
2018-10-06T01:43:17.087Z,9.91
2018-10-06T01:44:17.064Z,9.94
2018-10-06T01:45:17.054Z,9.84
2018-10-06T01:46:17.037Z,9.77
2018-10-06T01:47:17.058Z,9.92
2018-10-06T01:48:17.013Z,9.87
2018-10-06T01:49:17.017Z,9.91
2018-10-06T01:50:16.999Z,9.87
2018-10-06T01:51:16.993Z,9.97
2018-10-06T01:52:16.994Z,9.91
2018-10-06T01:53:16.975Z,10.09
2018-10-06T01:54:16.956Z,10.10
2018-10-06T01:55:16.958Z,10.15
2018-10-06T01:56:16.928Z,10.05
2018-10-06T01:57:16.926Z,10.16
2018-10-06T01:58:16.920Z,10.05
2018-10-06T01:59:16.899Z,10.01
2018-10-06T02:00:16.908Z,9.99
2018-10-06T02:01:16.875Z,9.97
2018-10-06T02:02:16.873Z,9.89
2018-10-06T02:03:16.866Z,9.92
2018-10-06T02:04:16.891Z,10.01
2018-10-06T02:05:16.835Z,10.02
2018-10-06T02:06:16.862Z,10.05
2018-10-06T02:07:16.827Z,10.15
2018-10-06T02:08:16.849Z,9.99
2018-10-06T02:09:16.790Z,9.98
2018-10-06T02:10:16.782Z,10.01
2018-10-06T02:11:16.776Z,9.99
2018-10-06T02:12:16.784Z,10.07
2018-10-06T02:13:16.790Z,10.15
2018-10-06T02:14:16.765Z,10.04
2018-10-06T02:15:16.729Z,10.10
2018-10-06T02:16:16.717Z,10.07
2018-10-06T02:17:16.732Z,10.07
2018-10-06T02:18:16.706Z,9.89
2018-10-06T02:19:16.699Z,9.94
2018-10-06T02:20:16.673Z,9.91
2018-10-06T02:21:16.661Z,9.94
2018-10-06T02:22:16.655Z,9.92
2018-10-06T02:23:16.650Z,9.84
2018-10-06T02:24:16.666Z,9.92
2018-10-06T02:25:16.620Z,10.02
2018-10-06T02:26:16.614Z,9.94
2018-10-06T02:27:16.616Z,9.87
2018-10-06T02:28:16.620Z,9.82
2018-10-06T02:29:16.595Z,9.91
2018-10-06T02:30:16.673Z,9.86
2018-10-06T02:31:16.575Z,9.92
2018-10-06T02:32:16.551Z,9.82
2018-10-06T02:33:16.535Z,9.95
2018-10-06T02:34:16.528Z,9.94
2018-10-06T02:35:16.533Z,9.80
2018-10-06T02:36:16.509Z,9.79
2018-10-06T02:37:16.517Z,9.89
2018-10-06T02:38:16.487Z,9.95
2018-10-06T02:39:16.472Z,9.84
2018-10-06T02:40:16.506Z,9.77
2018-10-06T02:41:16.476Z,9.76
2018-10-06T02:42:16.441Z,9.64
2018-10-06T02:43:16.443Z,9.74
2018-10-06T02:44:16.421Z,9.79
2018-10-06T02:45:16.434Z,9.74
2018-10-06T02:46:16.412Z,9.82
2018-10-06T02:47:16.391Z,9.92
2018-10-06T02:48:16.382Z,10.01
2018-10-06T02:49:16.383Z,9.91
2018-10-06T02:50:16.357Z,9.83
2018-10-06T02:51:16.359Z,9.79
2018-10-06T02:52:16.338Z,9.94
2018-10-06T02:53:16.329Z,9.80
2018-10-06T02:54:16.315Z,9.76
2018-10-06T02:55:16.308Z,9.86
2018-10-06T02:56:16.294Z,9.83
2018-10-06T02:57:16.288Z,9.77
2018-10-06T02:58:16.280Z,9.76
2018-10-06T02:59:16.269Z,9.74
2018-10-06T03:00:16.249Z,9.73
2018-10-06T03:01:16.244Z,9.65
2018-10-06T03:02:16.233Z,9.66
2018-10-06T03:03:16.225Z,9.66
2018-10-06T03:04:16.245Z,9.62
2018-10-06T03:05:16.195Z,9.62
2018-10-06T03:06:16.196Z,9.69
2018-10-06T03:07:16.173Z,9.65
2018-10-06T03:08:16.187Z,9.66
2018-10-06T03:09:16.179Z,9.66
2018-10-06T03:10:16.142Z,9.65
2018-10-06T03:11:16.131Z,9.61
2018-10-06T03:12:16.118Z,9.64
2018-10-06T03:13:16.129Z,9.80
2018-10-06T03:14:16.123Z,9.77
2018-10-06T03:15:16.117Z,9.74
2018-10-06T03:16:16.090Z,9.74
2018-10-06T03:17:16.069Z,9.72
2018-10-06T03:18:16.057Z,9.66
2018-10-06T03:19:16.060Z,9.64
2018-10-06T03:20:16.039Z,9.66
2018-10-06T03:21:16.029Z,9.73
2018-10-06T03:22:16.012Z,9.73
2018-10-06T03:23:16.007Z,9.68
2018-10-06T03:24:16.013Z,9.82
2018-10-06T03:25:15.981Z,9.86
2018-10-06T03:26:15.984Z,9.77
2018-10-06T03:27:15.983Z,9.80
2018-10-06T03:28:15.953Z,9.83
2018-10-06T03:29:16.000Z,9.83
2018-10-06T03:30:15.931Z,9.74
2018-10-06T03:31:15.916Z,9.77
2018-10-06T03:32:15.931Z,9.69
2018-10-06T03:33:16.864Z,9.51
2018-10-06T03:34:15.886Z,9.58
2018-10-06T03:35:15.885Z,9.58
2018-10-06T03:36:15.863Z,9.65
2018-10-06T03:37:15.853Z,9.62
2018-10-06T03:38:15.854Z,9.69
2018-10-06T03:39:15.834Z,9.73
2018-10-06T03:40:15.860Z,9.74
2018-10-06T03:41:15.811Z,9.82
2018-10-06T03:42:15.799Z,9.73
2018-10-06T03:43:15.790Z,9.74
2018-10-06T03:44:15.788Z,9.72
2018-10-06T03:45:15.776Z,9.73
2018-10-06T03:46:15.801Z,9.74
2018-10-06T03:47:15.753Z,9.77
2018-10-06T03:48:15.737Z,9.80
2018-10-06T03:49:15.748Z,9.76
2018-10-06T03:50:15.744Z,9.73
2018-10-06T03:51:15.719Z,9.77
2018-10-06T03:52:15.704Z,9.73
2018-10-06T03:53:15.692Z,9.80
2018-10-06T03:54:15.673Z,9.79
2018-10-06T03:55:15.680Z,9.76
2018-10-06T03:56:15.663Z,9.89
2018-10-06T03:57:15.650Z,9.89
2018-10-06T03:58:15.627Z,9.89
2018-10-06T03:59:15.623Z,9.82
2018-10-06T04:00:15.611Z,9.83
2018-10-06T04:01:15.605Z,9.86
2018-10-06T04:02:15.591Z,9.86
2018-10-06T04:03:15.583Z,9.82
2018-10-06T04:04:15.573Z,9.74
2018-10-06T04:05:15.554Z,9.74
2018-10-06T04:06:15.567Z,9.79
2018-10-06T04:07:15.551Z,9.84
2018-10-06T04:08:15.527Z,9.73
2018-10-06T04:09:15.512Z,9.82
2018-10-06T04:10:15.506Z,9.80
2018-10-06T04:11:15.538Z,9.76
2018-10-06T04:12:15.482Z,9.76
2018-10-06T04:13:15.477Z,9.74
2018-10-06T04:14:15.471Z,9.74
2018-10-06T04:15:15.451Z,9.73
2018-10-06T04:16:15.440Z,9.80
2018-10-06T04:17:15.447Z,9.77
2018-10-06T04:18:15.413Z,9.74
2018-10-06T04:19:15.412Z,9.83
2018-10-06T04:20:15.398Z,9.79
2018-10-06T04:21:15.389Z,9.89
2018-10-06T04:22:15.408Z,9.82
2018-10-06T04:23:15.373Z,9.94
2018-10-06T04:24:15.350Z,9.83
2018-10-06T04:25:15.344Z,9.95
2018-10-06T04:26:15.329Z,9.99
2018-10-06T04:27:15.321Z,10.09
2018-10-06T04:28:15.319Z,10.02
2018-10-06T04:29:15.311Z,9.99
2018-10-06T04:30:15.288Z,9.99
2018-10-06T04:31:15.326Z,9.86
2018-10-06T04:32:15.269Z,9.94
2018-10-06T04:33:15.284Z,9.84
2018-10-06T04:34:15.248Z,9.94
2018-10-06T04:35:15.236Z,9.77
2018-10-06T04:36:15.230Z,9.82
2018-10-06T04:37:15.213Z,9.80
2018-10-06T04:38:15.218Z,9.76
2018-10-06T04:39:15.192Z,9.74
2018-10-06T04:40:15.179Z,9.83
2018-10-06T04:41:15.168Z,9.86
2018-10-06T04:42:15.156Z,9.89
2018-10-06T04:43:15.146Z,9.98
2018-10-06T04:44:15.147Z,9.87
2018-10-06T04:45:15.123Z,9.87
2018-10-06T04:46:15.111Z,9.77
2018-10-06T04:47:15.136Z,9.80
2018-10-06T04:48:15.091Z,9.83
2018-10-06T04:49:15.107Z,9.73
2018-10-06T04:50:15.070Z,9.77
2018-10-06T04:51:15.059Z,9.76
2018-10-06T04:52:15.074Z,9.68
2018-10-06T04:53:15.143Z,9.64
2018-10-06T04:54:15.052Z,9.61
2018-10-06T04:55:15.016Z,9.55
2018-10-06T04:56:15.032Z,9.55
2018-10-06T04:57:14.997Z,9.62
2018-10-06T04:58:14.996Z,9.65
2018-10-06T04:59:15.005Z,9.61
2018-10-06T05:00:14.986Z,9.62
2018-10-06T05:01:14.967Z,9.66
2018-10-06T05:02:14.951Z,9.56
2018-10-06T05:03:14.944Z,9.51
2018-10-06T05:04:14.921Z,9.64
2018-10-06T05:05:14.924Z,9.64
2018-10-06T05:06:14.904Z,9.65
2018-10-06T05:07:14.888Z,9.59
2018-10-06T05:08:14.883Z,9.65
2018-10-06T05:09:14.874Z,9.64
2018-10-06T05:10:14.858Z,9.66
2018-10-06T05:11:14.848Z,9.69
2018-10-06T05:12:14.843Z,9.64
2018-10-06T05:13:14.832Z,9.66
2018-10-06T05:14:14.826Z,9.73
2018-10-06T05:15:14.833Z,9.61
2018-10-06T05:16:14.788Z,9.54
2018-10-06T05:17:14.782Z,9.51
2018-10-06T05:18:14.773Z,9.48
2018-10-06T05:19:14.762Z,9.54
2018-10-06T05:20:14.749Z,9.55
2018-10-06T05:21:14.760Z,9.61
2018-10-06T05:22:14.726Z,9.55
2018-10-06T05:23:14.720Z,9.55
2018-10-06T05:24:14.703Z,9.55
2018-10-06T05:25:14.697Z,9.56
2018-10-06T05:26:14.690Z,9.62
2018-10-06T05:27:14.674Z,9.61
2018-10-06T05:28:14.662Z,9.59
2018-10-06T05:29:14.660Z,9.55
2018-10-06T05:30:14.639Z,9.55
2018-10-06T05:31:14.651Z,9.54
2018-10-06T05:32:14.620Z,9.62
2018-10-06T05:33:14.607Z,9.72
2018-10-06T05:34:14.718Z,9.65
2018-10-06T05:35:14.595Z,9.62
2018-10-06T05:36:14.576Z,9.58
2018-10-06T05:37:14.606Z,9.62
2018-10-06T05:38:14.574Z,9.59
2018-10-06T05:39:14.544Z,9.56
2018-10-06T05:40:14.548Z,9.51
2018-10-06T05:41:14.535Z,9.54
2018-10-06T05:42:14.514Z,9.64
2018-10-06T05:43:14.507Z,9.68
2018-10-06T05:44:14.508Z,9.73
2018-10-06T05:45:14.482Z,9.73
2018-10-06T05:46:14.508Z,9.74
2018-10-06T05:47:14.480Z,9.72
2018-10-06T05:48:14.474Z,9.76
2018-10-06T05:49:14.438Z,9.69
2018-10-06T05:50:14.454Z,9.72
2018-10-06T05:51:14.418Z,9.74
2018-10-06T05:52:14.406Z,9.65
2018-10-06T05:53:14.418Z,9.58
2018-10-06T05:54:14.386Z,9.58
2018-10-06T05:55:14.381Z,9.74
2018-10-06T05:56:14.364Z,9.72
2018-10-06T05:57:14.357Z,9.69
2018-10-06T05:58:14.374Z,9.79
2018-10-06T05:59:14.428Z,9.91
2018-10-06T06:00:14.325Z,9.91
2018-10-06T06:01:14.313Z,9.89
2018-10-06T06:02:14.301Z,9.94
2018-10-06T06:03:14.308Z,9.83
2018-10-06T06:04:14.276Z,9.89
2018-10-06T06:05:14.267Z,9.94
2018-10-06T06:06:14.262Z,9.97
2018-10-06T06:07:14.243Z,9.98
2018-10-06T06:08:14.260Z,10.10
2018-10-06T06:09:14.234Z,10.13
2018-10-06T06:10:14.215Z,10.07
2018-10-06T06:11:14.205Z,10.17
2018-10-06T06:12:14.199Z,10.23
2018-10-06T06:13:14.186Z,10.22
2018-10-06T06:14:14.177Z,10.22
2018-10-06T06:15:14.160Z,10.23
2018-10-06T06:16:14.157Z,10.25
2018-10-06T06:17:14.143Z,10.30
2018-10-06T06:18:14.148Z,10.23
2018-10-06T06:19:14.126Z,10.28
2018-10-06T06:20:14.130Z,10.31
2018-10-06T06:21:14.095Z,10.38
2018-10-06T06:22:14.089Z,10.40
2018-10-06T06:23:14.072Z,10.41
2018-10-06T06:24:14.086Z,10.38
2018-10-06T06:25:14.054Z,10.38
2018-10-06T06:26:14.045Z,10.33
2018-10-06T06:27:14.029Z,10.20
2018-10-06T06:28:14.021Z,10.26
2018-10-06T06:29:14.041Z,10.16
2018-10-06T06:30:14.004Z,10.10
2018-10-06T06:31:14.065Z,10.13
2018-10-06T06:32:14.034Z,10.17
2018-10-06T06:33:13.970Z,10.15
2018-10-06T06:34:13.964Z,10.23
2018-10-06T06:35:13.969Z,10.23
2018-10-06T06:36:13.935Z,10.30
2018-10-06T06:37:13.930Z,10.26
2018-10-06T06:38:13.988Z,10.44
2018-10-06T06:39:13.901Z,10.38
2018-10-06T06:40:13.915Z,10.44
2018-10-06T06:41:13.906Z,10.38
2018-10-06T06:42:13.875Z,10.46
2018-10-06T06:43:13.867Z,10.51
2018-10-06T06:44:13.938Z,10.46
2018-10-06T06:45:13.842Z,10.51
2018-10-06T06:46:13.833Z,10.56
2018-10-06T06:47:13.817Z,10.68
2018-10-06T06:48:13.816Z,10.69
2018-10-06T06:49:13.800Z,10.69
2018-10-06T06:50:13.814Z,10.78
2018-10-06T06:51:13.791Z,10.79
2018-10-06T06:52:13.777Z,10.78
2018-10-06T06:53:13.761Z,10.74
2018-10-06T06:54:13.758Z,10.86
2018-10-06T06:55:13.739Z,10.90
2018-10-06T06:56:13.736Z,10.87
2018-10-06T06:57:13.717Z,11.07
2018-10-06T06:58:13.715Z,10.97
2018-10-06T06:59:13.688Z,11.11
2018-10-06T07:00:13.678Z,11.18
2018-10-06T07:01:13.668Z,11.22
2018-10-06T07:02:13.667Z,11.26
2018-10-06T07:03:13.661Z,11.37
2018-10-06T07:04:13.644Z,11.30
2018-10-06T07:05:13.630Z,11.37
2018-10-06T07:06:13.684Z,11.41
2018-10-06T07:07:13.607Z,11.48
2018-10-06T07:08:13.598Z,11.48
2018-10-06T07:09:13.602Z,11.54
2018-10-06T07:10:13.580Z,11.52
2018-10-06T07:11:13.562Z,11.62
2018-10-06T07:12:13.561Z,11.55
2018-10-06T07:13:13.546Z,11.69
2018-10-06T07:14:13.544Z,11.83
2018-10-06T07:15:13.527Z,11.88
2018-10-06T07:16:13.507Z,11.99
2018-10-06T07:17:13.509Z,12.00
2018-10-06T07:18:13.490Z,12.02
2018-10-06T07:19:13.479Z,12.06
2018-10-06T07:20:13.471Z,12.04
2018-10-06T07:21:13.475Z,12.03
2018-10-06T07:22:13.471Z,12.03
2018-10-06T07:23:13.438Z,12.09
2018-10-06T07:24:13.424Z,12.12
2018-10-06T07:25:13.453Z,12.15
2018-10-06T07:26:13.404Z,12.15
2018-10-06T07:27:13.414Z,12.25
2018-10-06T07:28:13.394Z,12.35
2018-10-06T07:29:13.369Z,12.36
2018-10-06T07:30:13.357Z,12.45
2018-10-06T07:31:13.355Z,12.42
2018-10-06T07:32:13.345Z,12.37
2018-10-06T07:33:13.349Z,12.50
2018-10-06T07:34:13.347Z,12.47
2018-10-06T07:35:13.311Z,12.62
2018-10-06T07:36:13.305Z,12.61
2018-10-06T07:37:13.291Z,12.64
2018-10-06T07:38:13.278Z,12.78
2018-10-06T07:39:13.270Z,12.80
2018-10-06T07:40:13.258Z,12.86
2018-10-06T07:41:13.243Z,12.93
2018-10-06T07:42:13.248Z,12.97
2018-10-06T07:43:13.225Z,13.12
2018-10-06T07:44:13.217Z,13.16
2018-10-06T07:45:13.208Z,13.20
2018-10-06T07:46:13.190Z,13.39
2018-10-06T07:47:13.184Z,13.42
2018-10-06T07:48:13.182Z,13.42
2018-10-06T07:49:13.161Z,13.60
2018-10-06T07:50:13.146Z,13.63
2018-10-06T07:51:13.142Z,13.68
2018-10-06T07:52:13.146Z,13.70
2018-10-06T07:53:13.304Z,13.79
2018-10-06T07:54:13.109Z,13.86
2018-10-06T07:55:13.090Z,13.90
2018-10-06T07:56:13.079Z,14.10
2018-10-06T07:57:13.075Z,14.04
2018-10-06T07:58:13.071Z,14.07
2018-10-06T07:59:13.075Z,14.10
2018-10-06T08:00:13.038Z,14.20
2018-10-06T08:01:13.051Z,14.33
2018-10-06T08:02:13.019Z,14.45
2018-10-06T08:03:13.012Z,14.55
2018-10-06T08:04:13.004Z,14.58
2018-10-06T08:05:12.986Z,14.65
2018-10-06T08:06:13.046Z,14.70
2018-10-06T08:07:12.997Z,14.78
2018-10-06T08:08:12.950Z,14.77
2018-10-06T08:09:12.950Z,14.88
2018-10-06T08:10:12.930Z,14.92
2018-10-06T08:11:12.930Z,14.94
2018-10-06T08:12:12.907Z,14.94
2018-10-06T08:13:12.910Z,14.97
2018-10-06T08:14:12.886Z,14.96
2018-10-06T08:15:12.881Z,14.94
2018-10-06T08:16:12.869Z,15.03
2018-10-06T08:17:12.870Z,14.92
2018-10-06T08:18:12.852Z,15.04
2018-10-06T08:19:12.837Z,14.97
2018-10-06T08:20:12.827Z,15.04
2018-10-06T08:21:12.813Z,14.99
2018-10-06T08:22:12.803Z,14.97
2018-10-06T08:23:12.800Z,14.97
2018-10-06T08:24:12.813Z,14.97
2018-10-06T08:25:12.770Z,15.00
2018-10-06T08:26:12.765Z,15.06
2018-10-06T08:27:12.758Z,15.03
2018-10-06T08:28:12.763Z,15.06
2018-10-06T08:29:12.733Z,15.09
2018-10-06T08:30:12.733Z,15.06
2018-10-06T08:31:12.712Z,15.09
2018-10-06T08:32:12.695Z,15.09
2018-10-06T08:33:12.688Z,15.07
2018-10-06T08:34:12.678Z,15.17
2018-10-06T08:35:12.667Z,15.21
2018-10-06T08:36:12.651Z,15.25
2018-10-06T08:37:12.639Z,15.37
2018-10-06T08:38:12.630Z,15.39
2018-10-06T08:39:12.626Z,15.39
2018-10-06T08:40:12.611Z,15.36
2018-10-06T08:41:12.598Z,15.51
2018-10-06T08:42:12.590Z,15.51
2018-10-06T08:43:12.589Z,15.49
2018-10-06T08:44:12.568Z,15.49
2018-10-06T08:45:12.554Z,15.52
2018-10-06T08:46:12.549Z,15.46
2018-10-06T08:47:12.532Z,15.52
2018-10-06T08:48:12.538Z,15.49
2018-10-06T08:49:12.536Z,15.49
2018-10-06T08:50:12.501Z,15.47
2018-10-06T08:51:12.489Z,15.55
2018-10-06T08:52:12.480Z,15.46
2018-10-06T08:53:12.469Z,15.57
2018-10-06T08:54:12.478Z,15.43
2018-10-06T08:55:12.474Z,15.46
2018-10-06T08:56:12.537Z,15.47
2018-10-06T08:57:12.428Z,15.51
2018-10-06T08:58:12.437Z,15.67
2018-10-06T08:59:12.403Z,15.54
2018-10-06T09:00:12.408Z,15.62
2018-10-06T09:01:12.394Z,15.73
2018-10-06T09:02:12.376Z,15.67
2018-10-06T09:03:12.363Z,15.72
2018-10-06T09:04:12.395Z,15.67
2018-10-06T09:05:12.370Z,15.70
2018-10-06T09:06:12.337Z,15.77
2018-10-06T09:07:12.317Z,15.97
2018-10-06T09:08:12.329Z,16.09
2018-10-06T09:09:12.307Z,16.24
2018-10-06T09:10:12.294Z,16.28
2018-10-06T09:11:12.294Z,16.33
2018-10-06T09:12:12.269Z,16.43
2018-10-06T09:13:12.259Z,16.53
2018-10-06T09:14:12.249Z,16.60
2018-10-06T09:15:12.243Z,16.74
2018-10-06T09:16:12.240Z,16.74
2018-10-06T09:17:12.212Z,16.78
2018-10-06T09:18:12.201Z,16.81
2018-10-06T09:19:12.195Z,16.84
2018-10-06T09:20:12.178Z,16.84
2018-10-06T09:21:12.190Z,16.93
2018-10-06T09:22:12.162Z,17.04
2018-10-06T09:23:12.149Z,17.15
2018-10-06T09:24:12.139Z,17.30
2018-10-06T09:25:12.130Z,17.38
2018-10-06T09:26:12.133Z,17.49
2018-10-06T09:27:12.103Z,17.49
2018-10-06T09:28:12.103Z,17.65
2018-10-06T09:29:12.083Z,17.64
2018-10-06T09:30:12.081Z,17.85
2018-10-06T09:31:12.061Z,17.86
2018-10-06T09:32:12.069Z,18.00
2018-10-06T09:33:12.041Z,18.00
2018-10-06T09:34:12.028Z,18.11
2018-10-06T09:35:12.018Z,18.20
2018-10-06T09:36:12.017Z,18.33
2018-10-06T09:37:12.003Z,18.35
2018-10-06T09:38:12.016Z,18.58
2018-10-06T09:39:11.981Z,18.75
2018-10-06T09:40:11.966Z,18.90
2018-10-06T09:41:11.954Z,19.09
2018-10-06T09:42:12.095Z,19.12
2018-10-06T09:43:11.933Z,19.40
2018-10-06T09:44:11.927Z,19.52
2018-10-06T09:45:11.919Z,19.71
2018-10-06T09:46:11.899Z,19.81
2018-10-06T09:47:11.890Z,20.02
2018-10-06T09:48:11.953Z,20.21
2018-10-06T09:49:11.874Z,20.22
2018-10-06T09:50:11.872Z,20.21
2018-10-06T09:51:11.851Z,20.37
2018-10-06T09:52:11.839Z,20.51
2018-10-06T09:53:11.830Z,20.77
2018-10-06T09:54:11.817Z,20.99
2018-10-06T09:55:11.808Z,21.00
2018-10-06T09:56:11.819Z,21.29
2018-10-06T09:57:11.785Z,21.45
2018-10-06T09:58:11.796Z,21.58
2018-10-06T09:59:11.776Z,21.83
2018-10-06T10:00:11.751Z,22.13
2018-10-06T10:01:11.743Z,22.81
2018-10-06T10:02:11.742Z,23.18
2018-10-06T10:03:11.722Z,24.23
2018-10-06T10:04:11.720Z,24.93
2018-10-06T10:05:11.698Z,25.44
2018-10-06T10:06:11.695Z,25.69
2018-10-06T10:07:11.679Z,26.06
2018-10-06T10:08:11.709Z,26.80
2018-10-06T10:09:11.668Z,27.25
2018-10-06T10:10:11.647Z,27.26
2018-10-06T10:11:11.646Z,27.44
2018-10-06T10:12:11.623Z,28.39
2018-10-06T10:13:11.615Z,29.39
2018-10-06T10:14:11.621Z,30.21
2018-10-06T10:15:11.601Z,30.35
2018-10-06T10:16:11.588Z,31.12
2018-10-06T10:17:11.672Z,31.92
2018-10-06T10:18:11.691Z,32.38
2018-10-06T10:19:11.553Z,32.75
2018-10-06T10:20:11.551Z,31.54
2018-10-06T10:21:11.542Z,31.51
2018-10-06T10:22:11.706Z,31.21
2018-10-06T10:23:11.523Z,31.39
2018-10-06T10:24:11.506Z,32.23
2018-10-06T10:25:11.505Z,31.74
2018-10-06T10:26:11.482Z,30.99
2018-10-06T10:27:11.473Z,30.21
2018-10-06T10:28:11.477Z,29.91
2018-10-06T10:29:11.446Z,29.66
2018-10-06T10:30:11.462Z,28.81
2018-10-06T10:31:11.432Z,28.39
2018-10-06T10:32:11.413Z,27.98
2018-10-06T10:33:11.414Z,27.71
2018-10-06T10:34:11.397Z,27.36
2018-10-06T10:35:11.888Z,26.75
2018-10-06T10:36:11.383Z,26.31
2018-10-06T10:37:11.384Z,26.13
2018-10-06T10:38:11.359Z,25.80
2018-10-06T10:39:11.375Z,25.72
2018-10-06T10:40:11.330Z,25.47
2018-10-06T10:41:11.330Z,25.75
2018-10-06T10:42:11.309Z,25.83
2018-10-06T10:43:11.301Z,25.83
2018-10-06T10:44:11.315Z,26.34
2018-10-06T10:45:11.279Z,27.27
2018-10-06T10:46:11.291Z,28.57
2018-10-06T10:47:11.262Z,28.62
2018-10-06T10:48:11.294Z,29.19
2018-10-06T10:49:11.241Z,29.86
2018-10-06T10:50:11.235Z,30.19
2018-10-06T10:51:11.231Z,30.12
2018-10-06T10:52:11.208Z,29.88
2018-10-06T10:53:11.193Z,29.51
2018-10-06T10:54:11.183Z,28.88
2018-10-06T10:55:11.186Z,28.72
2018-10-06T10:56:11.163Z,28.29
2018-10-06T10:57:11.181Z,27.93
2018-10-06T10:58:11.163Z,27.52
2018-10-06T10:59:11.131Z,26.74
2018-10-06T11:00:11.208Z,25.93
2018-10-06T11:01:11.222Z,25.63
2018-10-06T11:02:11.116Z,25.23
2018-10-06T11:03:11.093Z,24.99
2018-10-06T11:04:11.086Z,24.69
2018-10-06T11:05:11.073Z,24.50
2018-10-06T11:06:11.065Z,24.35
2018-10-06T11:07:11.067Z,24.14
2018-10-06T11:08:11.045Z,23.81
2018-10-06T11:09:11.030Z,23.47
2018-10-06T11:10:11.037Z,23.21
2018-10-06T11:11:11.072Z,23.17
2018-10-06T11:12:10.998Z,23.18
2018-10-06T11:13:10.987Z,23.13
2018-10-06T11:14:10.984Z,23.24
2018-10-06T11:15:10.964Z,23.15
2018-10-06T11:16:10.955Z,23.13
2018-10-06T11:17:10.966Z,23.17
2018-10-06T11:18:10.941Z,23.31
2018-10-06T11:19:10.919Z,23.47
2018-10-06T11:20:10.909Z,23.80
2018-10-06T11:21:10.910Z,24.33
2018-10-06T11:22:10.893Z,24.66
2018-10-06T11:23:10.899Z,24.74
2018-10-06T11:24:10.870Z,24.78
2018-10-06T11:25:10.857Z,24.91
2018-10-06T11:26:10.847Z,24.81
2018-10-06T11:27:10.845Z,24.57
2018-10-06T11:28:10.835Z,24.28
2018-10-06T11:29:10.827Z,24.11
2018-10-06T11:30:10.803Z,24.48
2018-10-06T11:31:10.793Z,24.88
2018-10-06T11:32:10.797Z,25.16
2018-10-06T11:33:10.802Z,25.44
2018-10-06T11:34:10.764Z,25.55
2018-10-06T11:35:10.755Z,26.47
2018-10-06T11:36:10.739Z,28.20
2018-10-06T11:37:10.795Z,29.79
2018-10-06T11:38:10.772Z,30.55
2018-10-06T11:39:10.734Z,29.90
2018-10-06T11:40:10.696Z,29.20
2018-10-06T11:41:10.691Z,28.49
2018-10-06T11:42:10.680Z,27.95
2018-10-06T11:43:10.666Z,27.89
2018-10-06T11:44:10.656Z,27.90
2018-10-06T11:45:10.648Z,27.70
2018-10-06T11:46:10.636Z,27.54
2018-10-06T11:47:10.625Z,27.20
2018-10-06T11:48:10.613Z,26.60
2018-10-06T11:49:10.604Z,26.22
2018-10-06T11:50:10.613Z,25.98
2018-10-06T11:51:10.584Z,25.66
2018-10-06T11:52:10.576Z,25.80
2018-10-06T11:53:10.560Z,26.25
2018-10-06T11:54:10.551Z,27.89
2018-10-06T11:55:10.559Z,29.27
2018-10-06T11:56:10.529Z,29.69
2018-10-06T11:57:10.519Z,29.61
2018-10-06T11:58:10.512Z,29.42
2018-10-06T11:59:10.503Z,29.71
2018-10-06T12:00:10.568Z,29.79
2018-10-06T12:01:10.483Z,30.53
2018-10-06T12:02:10.474Z,31.02
2018-10-06T12:03:10.459Z,31.03
2018-10-06T12:04:10.543Z,30.73
2018-10-06T12:05:10.438Z,30.40
2018-10-06T12:06:10.432Z,30.61
2018-10-06T12:07:10.427Z,30.77
2018-10-06T12:08:10.409Z,30.80
2018-10-06T12:09:10.397Z,31.00
2018-10-06T12:10:10.386Z,31.29
2018-10-06T12:11:10.385Z,31.46
2018-10-06T12:12:10.366Z,31.81
2018-10-06T12:13:10.360Z,31.81
2018-10-06T12:14:10.344Z,31.66
2018-10-06T12:15:10.331Z,31.52
2018-10-06T12:16:10.363Z,31.02
2018-10-06T12:17:10.315Z,30.43
2018-10-06T12:18:10.313Z,30.24
2018-10-06T12:19:10.292Z,29.87
2018-10-06T12:20:10.284Z,29.32
2018-10-06T12:21:10.277Z,28.97
2018-10-06T12:22:10.283Z,28.54
2018-10-06T12:23:10.251Z,28.14
2018-10-06T12:24:10.243Z,28.10
2018-10-06T12:25:10.231Z,28.38
2018-10-06T12:26:10.290Z,28.41
2018-10-06T12:27:10.216Z,28.66
2018-10-06T12:28:10.200Z,29.38
2018-10-06T12:29:10.259Z,29.59
2018-10-06T12:30:10.184Z,30.96
2018-10-06T12:31:10.172Z,30.31
2018-10-06T12:32:10.176Z,30.12
2018-10-06T12:33:10.147Z,29.78
2018-10-06T12:34:10.142Z,29.27
2018-10-06T12:35:10.142Z,28.82
2018-10-06T12:36:10.119Z,28.64
2018-10-06T12:37:10.106Z,28.44
2018-10-06T12:38:10.113Z,28.56
2018-10-06T12:39:10.088Z,28.59
2018-10-06T12:40:10.084Z,30.05
2018-10-06T12:41:10.064Z,30.99
2018-10-06T12:42:10.084Z,31.27
2018-10-06T12:43:10.058Z,32.09
2018-10-06T12:44:10.036Z,32.92
2018-10-06T12:45:10.037Z,33.05
2018-10-06T12:46:10.015Z,33.39
2018-10-06T12:47:10.006Z,34.38
2018-10-06T12:48:10.011Z,34.18
2018-10-06T12:49:09.994Z,33.37
2018-10-06T12:50:09.972Z,33.57
2018-10-06T12:51:09.962Z,32.30
2018-10-06T12:52:09.957Z,32.18
2018-10-06T12:53:09.941Z,33.20
2018-10-06T12:54:09.943Z,33.04
2018-10-06T12:55:09.923Z,33.27
2018-10-06T12:56:09.910Z,33.76
2018-10-06T12:57:09.902Z,33.99
2018-10-06T12:58:09.892Z,34.13
2018-10-06T12:59:09.887Z,33.11
2018-10-06T13:00:09.965Z,33.84